Time;durP1;ratioP1;P1;durP2;ratioP2;P2;SDS_P1;SDS_P2;PMS_P1;PMS_P2;Temp;Humidity;BMP_temperature;BMP_pressure;BME280_temperature;BME280_humidity;BME280_pressure;Samples;Min_cycle;Max_cycle;Signal;HPM_P1;HPM_P2
2023/02/02 00:01:30;;;;;;;5.03;1.85;;;6.00;99.90;;;;;;5013897;28;20723;-68
2023/02/02 00:03:59;;;;;;;5.55;1.83;;;6.00;99.90;;;;;;4999960;28;20217;-67
2023/02/02 00:06:30;;;;;;;5.10;2.08;;;6.00;99.90;;;;;;5016783;28;20286;-68
2023/02/02 00:09:00;;;;;;;3.78;1.67;;;6.00;99.90;;;;;;5004695;28;20218;-67
2023/02/02 00:11:28;;;;;;;5.90;2.35;;;6.00;99.90;;;;;;4982504;28;20360;-67
2023/02/02 00:13:57;;;;;;;3.78;1.95;;;6.00;99.90;;;;;;4994434;28;20241;-67
2023/02/02 00:16:39;;;;;;;5.45;2.00;;;6.00;99.90;;;;;;4999143;28;20224;-67
2023/02/02 00:19:10;;;;;;;3.67;1.83;;;6.00;99.90;;;;;;5008320;28;20210;-67
2023/02/02 00:21:40;;;;;;;4.50;1.95;;;6.00;99.90;;;;;;5006729;28;20718;-69
2023/02/02 00:24:09;;;;;;;2.72;2.00;;;6.00;99.90;;;;;;5000339;28;20207;-66
2023/02/02 00:26:39;;;;;;;2.00;1.35;;;6.00;99.90;;;;;;4998864;28;20614;-67
2023/02/02 00:29:13;;;;;;;4.38;1.90;;;6.00;99.90;;;;;;4998067;28;20199;-69
2023/02/02 00:31:41;;;;;;;2.85;1.63;;;6.00;99.90;;;;;;4995503;28;20285;-68
2023/02/02 00:34:11;;;;;;;3.10;2.03;;;6.00;99.90;;;;;;5015990;28;20325;-68
2023/02/02 00:36:41;;;;;;;3.80;1.95;;;6.00;99.90;;;;;;5005541;28;20221;-69
2023/02/02 00:39:10;;;;;;;3.22;1.65;;;6.00;99.90;;;;;;5021772;28;20194;-68
2023/02/02 00:41:39;;;;;;;2.72;1.55;;;6.00;99.90;;;;;;4995135;28;21261;-67
2023/02/02 00:46:53;;;;;;;2.80;1.50;;;6.10;99.90;;;;;;5018676;28;20329;-68
2023/02/02 00:49:23;;;;;;;5.70;2.08;;;6.00;99.90;;;;;;5011501;28;20198;-69
2023/02/02 00:51:56;;;;;;;2.35;2.15;;;6.00;99.90;;;;;;4999751;28;20273;-68
2023/02/02 00:54:25;;;;;;;4.55;1.75;;;6.00;99.90;;;;;;5006993;28;20222;-69
2023/02/02 00:56:53;;;;;;;3.50;2.33;;;6.00;99.90;;;;;;5001189;28;20222;-68
2023/02/02 00:59:22;;;;;;;8.40;2.40;;;6.10;99.90;;;;;;4997801;28;20623;-69
2023/02/02 01:01:50;;;;;;;3.88;2.20;;;6.00;99.90;;;;;;4997106;28;20313;-70
2023/02/02 01:04:18;;;;;;;4.00;1.80;;;6.00;99.90;;;;;;4999175;28;20304;-69
2023/02/02 01:06:47;;;;;;;4.43;2.47;;;6.00;99.90;;;;;;5006249;28;20703;-68
2023/02/02 01:09:17;;;;;;;3.97;2.00;;;6.00;99.90;;;;;;5005135;28;20202;-67
2023/02/02 01:11:45;;;;;;;4.03;2.10;;;6.10;99.90;;;;;;5003783;28;20289;-68
2023/02/02 01:14:13;;;;;;;3.60;2.00;;;6.00;99.90;;;;;;4999850;28;20687;-68
2023/02/02 01:16:42;;;;;;;5.20;2.28;;;6.00;99.90;;;;;;5023317;28;20229;-68
2023/02/02 01:19:12;;;;;;;6.50;2.25;;;6.00;99.90;;;;;;4999483;28;20236;-69
2023/02/02 01:21:44;;;;;;;5.15;1.75;;;6.10;99.90;;;;;;4992193;28;20223;-67
2023/02/02 01:24:13;;;;;;;6.22;2.05;;;6.00;99.90;;;;;;5010801;28;20775;-67
2023/02/02 01:26:43;;;;;;;4.22;1.98;;;6.00;99.90;;;;;;5004658;28;20241;-67
2023/02/02 01:29:12;;;;;;;2.38;1.60;;;6.00;99.90;;;;;;4999973;28;20194;-68
2023/02/02 01:31:41;;;;;;;5.45;2.45;;;6.10;99.90;;;;;;4998315;28;20222;-68
2023/02/02 01:34:10;;;;;;;4.68;1.95;;;6.00;99.90;;;;;;4994906;28;20214;-69
2023/02/02 01:36:39;;;;;;;6.15;1.90;;;6.00;99.90;;;;;;5018921;28;20722;-68
2023/02/02 01:39:07;;;;;;;5.20;1.88;;;6.00;99.90;;;;;;5010499;28;20225;-68
2023/02/02 01:41:35;;;;;;;5.53;2.60;;;6.00;99.90;;;;;;4994139;28;20230;-68
2023/02/02 01:44:07;;;;;;;3.00;1.73;;;6.00;99.90;;;;;;4998680;28;20306;-67
2023/02/02 01:46:36;;;;;;;4.65;1.73;;;6.10;99.90;;;;;;4992996;28;20229;-67
2023/02/02 01:49:11;;;;;;;4.60;2.40;;;6.10;99.90;;;;;;5016861;28;20250;-69
2023/02/02 01:51:44;;;;;;;4.55;2.03;;;6.10;99.90;;;;;;5002676;28;20698;-66
2023/02/02 01:54:16;;;;;;;4.72;2.30;;;6.10;99.90;;;;;;4984044;28;20253;-69
2023/02/02 01:56:51;;;;;;;2.97;1.65;;;6.00;99.90;;;;;;5003557;28;20693;-69
2023/02/02 01:59:21;;;;;;;4.05;2.47;;;6.10;99.90;;;;;;5003191;28;20315;-67
2023/02/02 02:01:53;;;;;;;3.10;1.83;;;6.00;99.90;;;;;;5006686;28;20221;-68
2023/02/02 02:04:24;;;;;;;2.45;1.85;;;6.10;99.90;;;;;;5006651;28;20223;-67
2023/02/02 02:06:53;;;;;;;5.68;1.75;;;6.00;99.90;;;;;;5016737;28;20250;-67
2023/02/02 02:09:21;;;;;;;8.70;2.17;;;6.10;99.90;;;;;;5018080;28;20195;-67
2023/02/02 02:11:52;;;;;;;2.72;1.73;;;6.10;99.90;;;;;;4994482;28;20213;-68
2023/02/02 02:17:32;;;;;;;4.30;2.22;;;6.00;99.90;;;;;;5015575;28;20255;-68
2023/02/02 02:27:21;;;;;;;8.27;2.22;;;6.10;99.90;;;;;;4999854;28;20698;-66
2023/02/02 02:30:09;;;;;;;4.07;2.40;;;6.00;99.90;;;;;;4998144;28;20729;-68
2023/02/02 02:32:49;;;;;;;3.30;1.80;;;6.00;99.90;;;;;;4999040;28;20206;-68
2023/02/02 02:35:28;;;;;;;7.03;2.70;;;6.10;99.90;;;;;;4997904;28;20224;-69
2023/02/02 02:38:03;;;;;;;5.30;2.47;;;6.10;99.90;;;;;;5008417;28;20340;-69
2023/02/02 02:40:36;;;;;;;2.67;1.80;;;6.10;99.90;;;;;;5000833;28;20224;-67
2023/02/02 02:43:09;;;;;;;3.28;1.95;;;6.10;99.90;;;;;;5004890;28;20204;-68
2023/02/02 02:45:39;;;;;;;4.13;1.90;;;6.10;99.90;;;;;;5001254;28;20190;-67
2023/02/02 02:48:10;;;;;;;4.07;2.25;;;6.10;99.90;;;;;;5019966;28;20196;-67
2023/02/02 02:50:38;;;;;;;2.60;1.88;;;6.10;99.90;;;;;;5001731;28;20207;-67
2023/02/02 02:53:13;;;;;;;7.97;2.03;;;6.10;99.90;;;;;;5021675;28;20198;-65
2023/02/02 02:55:49;;;;;;;3.67;2.35;;;6.10;99.90;;;;;;5007941;28;20556;-68
2023/02/02 02:58:25;;;;;;;4.95;2.35;;;6.10;99.90;;;;;;5016955;28;20237;-69
2023/02/02 03:01:07;;;;;;;3.55;1.77;;;6.10;99.90;;;;;;5007333;28;20303;-68
2023/02/02 03:04:06;;;;;;;2.40;2.20;;;6.10;99.90;;;;;;4997833;28;20284;-67
2023/02/02 03:06:42;;;;;;;6.88;2.20;;;6.10;99.90;;;;;;5003594;28;20215;-69
2023/02/02 03:09:13;;;;;;;3.42;2.15;;;6.10;99.90;;;;;;5014589;28;20214;-67
2023/02/02 03:11:41;;;;;;;4.25;2.42;;;6.00;99.90;;;;;;4994532;28;20796;-67
2023/02/02 03:14:10;;;;;;;6.22;2.00;;;6.10;99.90;;;;;;5000813;28;20689;-67
2023/02/02 03:16:38;;;;;;;2.53;1.90;;;6.10;99.90;;;;;;5006232;28;20212;-68
2023/02/02 03:19:09;;;;;;;3.88;1.80;;;6.10;99.90;;;;;;5000143;28;20773;-66
2023/02/02 03:21:37;;;;;;;2.13;1.67;;;6.10;99.90;;;;;;4999321;28;20703;-68
2023/02/02 03:24:06;;;;;;;4.03;2.08;;;6.10;99.90;;;;;;5003722;28;20214;-68
2023/02/02 03:26:35;;;;;;;5.15;2.28;;;6.10;99.90;;;;;;5002176;28;20221;-68
2023/02/02 03:29:03;;;;;;;4.63;2.33;;;6.10;99.90;;;;;;5002999;28;20194;-67
2023/02/02 03:31:32;;;;;;;2.75;2.17;;;6.10;99.90;;;;;;5010313;28;20253;-67
2023/02/02 03:34:00;;;;;;;2.95;1.90;;;6.10;99.90;;;;;;5005945;28;20214;-69
2023/02/02 03:36:30;;;;;;;3.70;2.45;;;6.10;99.90;;;;;;5002100;28;20221;-68
2023/02/02 03:38:58;;;;;;;3.33;2.10;;;6.10;99.90;;;;;;5024514;28;20195;-69
2023/02/02 03:41:26;;;;;;;3.25;2.28;;;6.10;99.90;;;;;;5002773;28;20218;-67
2023/02/02 03:43:54;;;;;;;2.92;1.80;;;6.10;99.90;;;;;;5000353;28;20657;-68
2023/02/02 03:46:23;;;;;;;4.18;2.15;;;6.10;99.90;;;;;;4999670;28;20312;-67
2023/02/02 03:48:51;;;;;;;5.88;1.95;;;6.10;99.90;;;;;;5003953;28;20195;-68
2023/02/02 03:51:19;;;;;;;3.25;2.22;;;6.10;99.90;;;;;;4993903;28;20253;-68
2023/02/02 03:53:49;;;;;;;2.17;1.73;;;6.10;99.90;;;;;;5018157;28;20705;-68
2023/02/02 03:56:18;;;;;;;4.03;1.50;;;6.10;99.90;;;;;;5016764;28;20710;-67
2023/02/02 03:58:47;;;;;;;3.92;2.50;;;6.10;99.90;;;;;;4999045;28;20217;-66
2023/02/02 04:01:15;;;;;;;7.63;2.00;;;6.10;99.90;;;;;;5003574;28;20306;-68
2023/02/02 04:03:45;;;;;;;2.50;1.95;;;6.10;99.90;;;;;;4998021;28;20216;-69
2023/02/02 04:06:13;;;;;;;4.13;1.85;;;6.10;99.90;;;;;;5003448;28;20218;-68
2023/02/02 04:08:41;;;;;;;4.40;2.10;;;6.10;99.90;;;;;;5009583;28;20191;-68
2023/02/02 04:11:11;;;;;;;8.38;2.88;;;6.10;99.90;;;;;;5017849;28;20797;-67
2023/02/02 04:13:42;;;;;;;2.78;2.30;;;6.10;99.90;;;;;;5001816;28;20692;-70
2023/02/02 04:16:11;;;;;;;2.85;1.80;;;6.10;99.90;;;;;;5000237;28;20270;-67
2023/02/02 04:18:39;;;;;;;3.95;1.60;;;6.10;99.90;;;;;;4998875;28;20220;-68
2023/02/02 04:21:08;;;;;;;5.30;2.22;;;6.10;99.90;;;;;;4996887;28;20225;-68
2023/02/02 04:23:37;;;;;;;4.75;2.03;;;6.10;99.90;;;;;;4991584;28;20646;-68
2023/02/02 04:26:06;;;;;;;2.47;1.90;;;6.10;99.90;;;;;;5004150;28;20792;-68
2023/02/02 04:28:36;;;;;;;5.47;1.83;;;6.10;99.90;;;;;;4983148;28;20185;-67
2023/02/02 04:31:04;;;;;;;4.22;1.80;;;6.10;99.90;;;;;;5016432;28;20225;-67
2023/02/02 04:33:34;;;;;;;3.60;1.90;;;6.10;99.90;;;;;;5005431;28;20223;-69
2023/02/02 04:36:03;;;;;;;5.97;2.05;;;6.10;99.90;;;;;;4996055;28;20280;-67
2023/02/02 04:38:31;;;;;;;2.97;2.22;;;6.10;99.90;;;;;;4999173;28;20218;-68
2023/02/02 04:40:59;;;;;;;2.53;1.35;;;6.10;99.90;;;;;;4996959;28;20368;-68
2023/02/02 04:43:28;;;;;;;2.00;1.60;;;6.10;99.90;;;;;;4998675;28;20289;-66
2023/02/02 04:45:57;;;;;;;3.92;2.13;;;6.10;99.90;;;;;;4992495;28;20233;-68
2023/02/02 04:48:26;;;;;;;2.58;1.70;;;6.10;99.90;;;;;;5001445;28;20198;-68
2023/02/02 04:50:59;;;;;;;4.13;3.22;;;6.10;99.90;;;;;;4996074;28;20229;-67
2023/02/02 04:53:28;;;;;;;4.50;2.40;;;6.10;99.90;;;;;;4991202;28;20743;-67
2023/02/02 04:55:56;;;;;;;2.67;1.95;;;6.10;99.90;;;;;;5001822;28;20591;-66
2023/02/02 04:58:25;;;;;;;2.58;1.42;;;6.10;99.90;;;;;;5013884;28;20300;-68
2023/02/02 05:00:53;;;;;;;7.15;2.22;;;6.10;99.90;;;;;;4997472;28;20213;-68
2023/02/02 05:03:23;;;;;;;2.50;2.30;;;6.10;99.90;;;;;;4999924;28;20197;-67
2023/02/02 05:05:51;;;;;;;4.15;1.65;;;6.10;99.90;;;;;;5010253;28;20230;-69
2023/02/02 05:08:19;;;;;;;5.07;1.77;;;6.10;99.90;;;;;;4996858;28;20188;-68
2023/02/02 05:10:49;;;;;;;3.13;2.00;;;6.10;99.90;;;;;;5001950;28;20221;-67
2023/02/02 05:13:17;;;;;;;4.85;2.28;;;6.10;99.90;;;;;;5000565;28;20205;-68
2023/02/02 05:15:45;;;;;;;5.38;1.75;;;6.10;99.90;;;;;;4998011;28;20573;-69
2023/02/02 05:18:14;;;;;;;3.83;2.35;;;6.10;99.90;;;;;;5010265;28;20198;-68
2023/02/02 05:20:43;;;;;;;3.20;2.33;;;6.10;99.90;;;;;;5021700;28;20227;-67
2023/02/02 05:23:12;;;;;;;4.97;1.80;;;6.10;99.90;;;;;;5002417;28;20185;-67
2023/02/02 05:25:40;;;;;;;3.50;1.95;;;6.10;99.90;;;;;;5005710;28;20247;-67
2023/02/02 05:28:08;;;;;;;3.90;2.17;;;6.10;99.90;;;;;;5010825;28;20201;-69
2023/02/02 05:30:39;;;;;;;3.85;1.88;;;6.10;99.90;;;;;;4998783;28;20209;-68
2023/02/02 05:33:07;;;;;;;2.08;1.73;;;6.10;99.90;;;;;;4995718;28;20203;-68
2023/02/02 05:35:36;;;;;;;3.75;1.80;;;6.10;99.90;;;;;;5005560;28;20217;-68
2023/02/02 05:38:05;;;;;;;2.90;1.90;;;6.10;99.90;;;;;;4992458;28;20217;-69
2023/02/02 05:40:34;;;;;;;3.45;1.70;;;6.10;99.90;;;;;;4996666;28;20199;-66
2023/02/02 05:43:02;;;;;;;3.30;1.65;;;6.10;99.90;;;;;;5019987;28;20247;-66
2023/02/02 05:45:31;;;;;;;4.03;1.63;;;6.10;99.90;;;;;;5010683;28;20262;-67
2023/02/02 05:48:00;;;;;;;3.83;2.15;;;6.10;99.90;;;;;;5018223;28;20194;-68
2023/02/02 05:50:28;;;;;;;4.22;2.10;;;6.10;99.90;;;;;;4997406;28;20247;-68
2023/02/02 05:53:05;;;;;;;5.15;2.25;;;6.10;99.90;;;;;;4999834;28;20202;-67
2023/02/02 05:55:34;;;;;;;3.15;1.90;;;6.10;99.90;;;;;;4994726;28;20229;-67
2023/02/02 05:58:02;;;;;;;4.80;2.35;;;6.10;99.90;;;;;;4993835;28;20218;-69
2023/02/02 06:00:30;;;;;;;2.97;2.17;;;6.10;99.90;;;;;;5017399;28;20694;-68
2023/02/02 06:02:58;;;;;;;5.28;2.20;;;6.10;99.90;;;;;;5000468;28;20198;-68
2023/02/02 06:05:27;;;;;;;3.97;1.73;;;6.10;99.90;;;;;;5001458;28;20241;-69
2023/02/02 06:07:58;;;;;;;2.90;2.35;;;6.10;99.90;;;;;;5015253;28;20628;-67
2023/02/02 06:10:30;;;;;;;3.67;1.80;;;6.10;99.90;;;;;;5019423;28;20194;-66
2023/02/02 06:12:58;;;;;;;3.25;2.38;;;6.10;99.90;;;;;;5005752;28;20207;-67
2023/02/02 06:15:28;;;;;;;5.40;2.35;;;6.10;99.90;;;;;;5017045;28;20231;-66
2023/02/02 06:17:57;;;;;;;4.43;1.88;;;6.10;99.90;;;;;;5007314;28;20187;-67
2023/02/02 06:20:25;;;;;;;5.43;2.22;;;6.10;99.90;;;;;;5000158;28;20306;-67
2023/02/02 06:22:53;;;;;;;2.70;1.80;;;6.10;99.90;;;;;;4998395;28;20203;-67
2023/02/02 06:25:22;;;;;;;4.18;2.42;;;6.10;99.90;;;;;;5019251;28;20261;-67
2023/02/02 06:27:55;;;;;;;2.85;2.03;;;6.10;99.90;;;;;;4995701;28;20206;-69
2023/02/02 06:30:24;;;;;;;5.57;2.55;;;6.10;99.90;;;;;;5008815;28;20190;-67
2023/02/02 06:32:52;;;;;;;1.90;1.80;;;6.10;99.90;;;;;;5006233;28;20620;-67
2023/02/02 06:35:21;;;;;;;2.33;2.08;;;6.10;99.90;;;;;;5007541;28;20218;-67
2023/02/02 06:37:50;;;;;;;4.13;2.35;;;6.10;99.90;;;;;;5003226;28;20225;-68
2023/02/02 06:40:18;;;;;;;2.53;1.40;;;6.20;99.90;;;;;;4994058;28;20209;-66
2023/02/02 06:42:46;;;;;;;5.07;2.28;;;6.10;99.90;;;;;;5000791;28;20734;-66
2023/02/02 06:45:16;;;;;;;2.25;1.80;;;6.10;99.90;;;;;;5021683;28;20686;-68
2023/02/02 06:47:45;;;;;;;2.92;1.77;;;6.20;99.90;;;;;;5018265;28;20283;-68
2023/02/02 06:50:13;;;;;;;4.80;2.15;;;6.10;99.90;;;;;;4994531;28;20222;-69
2023/02/02 06:52:47;;;;;;;4.65;2.10;;;6.10;99.90;;;;;;5011928;28;20655;-68
2023/02/02 06:55:16;;;;;;;3.85;1.90;;;6.10;99.90;;;;;;5008929;28;20220;-70
2023/02/02 06:57:44;;;;;;;4.72;1.90;;;6.10;99.90;;;;;;4997598;28;20195;-67
2023/02/02 07:00:14;;;;;;;6.32;2.08;;;6.10;99.90;;;;;;4995066;28;20221;-67
2023/02/02 07:02:46;;;;;;;2.78;2.33;;;6.20;99.90;;;;;;5013416;28;20202;-68
2023/02/02 07:05:15;;;;;;;4.47;2.03;;;6.10;99.90;;;;;;5016056;28;20246;-67
2023/02/02 07:07:43;;;;;;;5.18;2.55;;;6.20;99.90;;;;;;5017959;28;20982;-67
2023/02/02 07:10:13;;;;;;;3.38;1.88;;;6.20;99.90;;;;;;5001256;28;20227;-67
2023/02/02 07:13:01;;;;;;;2.97;2.67;;;6.10;99.90;;;;;;5005841;28;20350;-69
2023/02/02 07:15:30;;;;;;;3.20;1.92;;;6.10;99.90;;;;;;5002381;28;20218;-67
2023/02/02 07:18:00;;;;;;;7.38;3.00;;;6.10;99.90;;;;;;5012385;28;20257;-67
2023/02/02 07:20:29;;;;;;;3.30;2.00;;;6.10;99.90;;;;;;4994786;28;20241;-72
2023/02/02 07:22:57;;;;;;;5.18;2.35;;;6.10;99.90;;;;;;5009745;28;20209;-73
2023/02/02 07:25:26;;;;;;;6.38;2.28;;;6.20;99.90;;;;;;5008720;28;20256;-73
2023/02/02 07:27:54;;;;;;;3.28;2.78;;;6.20;99.90;;;;;;5002466;28;20202;-73
2023/02/02 07:30:24;;;;;;;3.05;2.42;;;6.10;99.90;;;;;;4995649;28;20233;-74
2023/02/02 07:32:52;;;;;;;2.63;1.90;;;6.10;99.90;;;;;;5007461;28;20228;-74
2023/02/02 07:35:22;;;;;;;6.57;2.80;;;6.20;99.90;;;;;;5005908;28;20248;-73
2023/02/02 07:37:52;;;;;;;3.78;1.90;;;6.20;99.90;;;;;;4983155;28;20205;-74
2023/02/02 07:40:21;;;;;;;3.85;3.10;;;6.10;99.90;;;;;;5020029;28;20702;-75
2023/02/02 07:42:50;;;;;;;5.25;3.00;;;6.20;99.90;;;;;;5004333;28;20221;-73
2023/02/02 07:45:18;;;;;;;2.75;1.77;;;6.10;99.90;;;;;;5002254;28;20224;-72
2023/02/02 07:47:58;;;;;;;4.97;2.45;;;6.10;99.90;;;;;;4986854;28;20201;-75
2023/02/02 07:50:30;;;;;;;4.20;2.65;;;6.10;99.90;;;;;;5006347;28;20263;-73
2023/02/02 07:52:59;;;;;;;2.60;2.10;;;6.10;99.90;;;;;;5012299;28;20205;-74
2023/02/02 07:55:30;;;;;;;4.93;2.50;;;6.20;99.90;;;;;;5001775;28;20227;-67
2023/02/02 07:58:00;;;;;;;3.72;3.15;;;6.20;99.90;;;;;;4996730;28;20255;-68
2023/02/02 08:00:29;;;;;;;2.85;1.83;;;6.20;99.90;;;;;;5010659;28;20245;-67
2023/02/02 08:02:57;;;;;;;6.50;2.08;;;6.10;99.90;;;;;;5002933;28;20654;-66
2023/02/02 08:05:26;;;;;;;2.13;1.92;;;6.20;99.90;;;;;;5010624;28;20225;-67
2023/02/02 08:07:56;;;;;;;5.47;2.38;;;6.10;99.90;;;;;;5002882;28;20221;-67
2023/02/02 08:10:25;;;;;;;2.83;1.65;;;6.10;99.90;;;;;;5022270;28;20202;-68
2023/02/02 08:12:53;;;;;;;6.00;2.00;;;6.10;99.90;;;;;;4999182;28;20198;-69
2023/02/02 08:15:21;;;;;;;3.47;2.50;;;6.20;99.90;;;;;;4997899;28;20951;-67
2023/02/02 08:17:50;;;;;;;3.17;1.83;;;6.20;99.90;;;;;;4998564;28;20229;-68
2023/02/02 08:20:19;;;;;;;4.15;2.65;;;6.10;99.90;;;;;;4995659;28;20245;-67
2023/02/02 08:22:47;;;;;;;2.42;1.98;;;6.20;99.90;;;;;;5005962;28;20206;-66
2023/02/02 08:25:17;;;;;;;4.40;2.35;;;6.20;99.90;;;;;;4996011;28;20800;-68
2023/02/02 08:27:45;;;;;;;10.00;3.08;;;6.20;99.90;;;;;;4995559;28;20206;-67
2023/02/02 08:30:14;;;;;;;4.28;2.50;;;6.10;99.90;;;;;;4997820;28;20224;-67
2023/02/02 08:32:43;;;;;;;2.67;1.60;;;6.20;99.90;;;;;;5006174;28;20212;-68
2023/02/02 08:35:11;;;;;;;3.33;1.80;;;6.20;99.90;;;;;;5006758;28;20222;-67
2023/02/02 08:37:40;;;;;;;5.45;3.10;;;6.10;99.90;;;;;;5021418;28;20701;-68
2023/02/02 08:40:11;;;;;;;5.75;1.90;;;6.10;99.90;;;;;;5003946;28;20222;-66
2023/02/02 08:42:42;;;;;;;3.40;2.25;;;6.20;99.90;;;;;;4995680;28;20251;-66
2023/02/02 08:45:11;;;;;;;5.45;2.75;;;6.20;99.90;;;;;;5005852;28;20220;-66
2023/02/02 08:47:59;;;;;;;6.68;2.35;;;6.20;99.90;;;;;;5004337;28;20202;-66
2023/02/02 08:50:39;;;;;;;3.63;2.00;;;6.20;99.90;;;;;;5005486;28;20312;-66
2023/02/02 08:53:08;;;;;;;3.20;2.50;;;6.20;99.90;;;;;;5007696;28;20193;-67
2023/02/02 08:55:36;;;;;;;4.20;2.50;;;6.20;99.90;;;;;;5006226;28;20190;-66
2023/02/02 08:58:06;;;;;;;4.07;2.17;;;6.20;99.90;;;;;;5007079;28;20222;-67
2023/02/02 09:00:34;;;;;;;4.65;2.85;;;6.20;99.90;;;;;;5020146;28;20273;-68
2023/02/02 09:03:03;;;;;;;3.03;2.00;;;6.20;99.90;;;;;;5002584;28;20659;-67
2023/02/02 09:05:31;;;;;;;3.88;2.30;;;6.20;99.90;;;;;;5016773;28;20589;-68
2023/02/02 09:08:00;;;;;;;2.40;2.20;;;6.20;99.90;;;;;;4996853;28;20185;-67
2023/02/02 09:10:30;;;;;;;5.50;2.75;;;6.20;99.90;;;;;;4999359;28;20207;-69
2023/02/02 09:12:59;;;;;;;4.10;2.80;;;6.20;99.90;;;;;;4986728;28;21007;-67
2023/02/02 09:15:29;;;;;;;5.22;2.63;;;6.20;99.90;;;;;;5014761;28;20237;-67
2023/02/02 09:17:57;;;;;;;3.55;2.13;;;6.20;99.90;;;;;;5013772;28;20209;-68
2023/02/02 09:20:26;;;;;;;4.07;2.40;;;6.20;99.90;;;;;;5004231;28;20591;-68
2023/02/02 09:22:56;;;;;;;2.10;1.95;;;6.20;99.90;;;;;;5005106;28;20198;-68
2023/02/02 09:25:26;;;;;;;3.83;2.10;;;6.20;99.90;;;;;;5000682;28;20214;-66
2023/02/02 09:27:54;;;;;;;5.95;2.70;;;6.20;99.90;;;;;;5001087;28;20194;-67
2023/02/02 09:30:23;;;;;;;6.15;2.83;;;6.20;99.90;;;;;;4999448;28;20202;-67
2023/02/02 09:32:53;;;;;;;6.90;2.47;;;6.20;99.90;;;;;;5020061;28;20199;-67
2023/02/02 09:35:21;;;;;;;5.95;4.18;;;6.20;99.90;;;;;;5007829;28;20228;-68
2023/02/02 09:37:50;;;;;;;3.75;2.53;;;6.20;99.90;;;;;;5027626;28;20195;-68
2023/02/02 09:40:20;;;;;;;2.85;2.40;;;6.20;99.90;;;;;;4993664;28;20746;-66
2023/02/02 09:43:01;;;;;;;3.22;2.53;;;6.20;99.90;;;;;;5023222;28;20255;-69
2023/02/02 09:45:39;;;;;;;4.45;2.20;;;6.20;99.90;;;;;;5017089;28;20235;-67
2023/02/02 09:48:23;;;;;;;5.00;2.83;;;6.20;99.90;;;;;;5019244;28;20208;-74
2023/02/02 09:50:54;;;;;;;3.65;3.00;;;6.20;99.90;;;;;;5008402;28;20193;-74
2023/02/02 09:53:35;;;;;;;2.85;2.50;;;6.20;99.90;;;;;;5005847;28;20227;-74
2023/02/02 09:56:26;;;;;;;2.97;2.10;;;6.20;99.90;;;;;;5002518;28;20246;-73
2023/02/02 09:58:56;;;;;;;2.80;2.33;;;6.20;99.90;;;;;;5022878;28;20202;-72
2023/02/02 10:01:43;;;;;;;5.82;2.30;;;6.20;99.90;;;;;;5020335;28;20214;-72
2023/02/02 10:04:18;;;;;;;3.95;2.20;;;6.20;99.90;;;;;;5005572;28;20213;-73
2023/02/02 10:06:48;;;;;;;3.28;2.33;;;6.20;99.90;;;;;;5004251;28;20510;-74
2023/02/02 10:09:35;;;;;;;4.03;3.05;;;6.20;99.90;;;;;;5007800;28;20204;-74
2023/02/02 10:12:16;;;;;;;4.43;2.55;;;6.20;99.90;;;;;;5001223;28;20217;-72
2023/02/02 10:14:52;;;;;;;2.53;2.30;;;6.20;99.90;;;;;;4993294;28;20336;-73
2023/02/02 10:17:37;;;;;;;2.72;2.00;;;6.20;99.90;;;;;;4992316;28;20195;-73
2023/02/02 10:20:20;;;;;;;6.63;2.78;;;6.20;99.90;;;;;;4995915;28;20241;-74
2023/02/02 10:22:50;;;;;;;2.95;2.67;;;6.20;99.90;;;;;;5006165;28;20687;-66
2023/02/02 10:25:23;;;;;;;3.85;2.58;;;6.20;99.90;;;;;;5006617;28;20225;-67
2023/02/02 10:27:59;;;;;;;4.82;2.85;;;6.20;99.90;;;;;;5007605;28;20733;-67
2023/02/02 10:30:37;;;;;;;4.95;2.35;;;6.20;99.90;;;;;;4997320;28;20283;-67
2023/02/02 10:33:11;;;;;;;4.35;2.83;;;6.20;99.90;;;;;;4998698;28;20197;-68
2023/02/02 10:35:45;;;;;;;4.32;3.60;;;6.20;99.90;;;;;;5004147;28;20780;-68
2023/02/02 10:38:24;;;;;;;3.67;2.28;;;6.20;99.90;;;;;;5001807;28;20293;-68
2023/02/02 10:41:02;;;;;;;3.00;2.33;;;6.20;99.90;;;;;;5003206;28;20641;-68
2023/02/02 10:43:56;;;;;;;2.88;2.38;;;6.20;99.90;;;;;;5002473;28;20202;-67
2023/02/02 10:46:30;;;;;;;5.90;3.40;;;6.20;99.90;;;;;;5010173;28;20219;-66
2023/02/02 10:49:22;;;;;;;2.40;2.20;;;6.20;99.90;;;;;;4992413;28;20281;-67
2023/02/02 10:51:58;;;;;;;3.42;2.38;;;6.30;99.90;;;;;;5006676;28;20221;-68
2023/02/02 10:54:43;;;;;;;2.50;2.00;;;6.20;99.90;;;;;;5021360;28;20218;-68
2023/02/02 10:57:48;;;;;;;3.92;2.20;;;6.30;99.90;;;;;;5005425;28;20227;-67
2023/02/02 11:00:22;;;;;;;2.83;1.97;;;6.30;99.90;;;;;;5005178;28;20574;-68
2023/02/02 11:02:52;;;;;;;3.30;2.40;;;6.30;99.90;;;;;;4998780;28;20198;-73
2023/02/02 11:08:31;;;;;;;7.47;2.42;;;6.30;99.90;;;;;;4930920;29;20350;-74
2023/02/02 11:11:11;;;;;;;3.55;2.30;;;6.30;99.90;;;;;;4925546;29;20272;-73
2023/02/02 11:13:45;;;;;;;6.55;2.40;;;6.20;99.90;;;;;;4976599;28;20699;-74
2023/02/02 11:16:26;;;;;;;2.55;2.30;;;6.30;99.90;;;;;;5024128;28;20280;-72
2023/02/02 11:19:22;;;;;;;2.92;2.60;;;6.30;99.90;;;;;;4999459;28;20313;-75
2023/02/02 11:21:53;;;;;;;4.85;2.42;;;6.30;99.90;;;;;;5023168;28;20597;-74
2023/02/02 11:24:27;;;;;;;2.88;2.20;;;6.30;99.90;;;;;;5008423;28;20284;-73
2023/02/02 11:26:59;;;;;;;3.17;2.38;;;6.30;99.90;;;;;;4997048;28;20227;-73
2023/02/02 11:29:32;;;;;;;3.60;2.60;;;6.30;99.90;;;;;;5011637;28;20212;-72
2023/02/02 11:32:26;;;;;;;5.00;2.60;;;6.30;99.90;;;;;;5005206;28;20230;-72
2023/02/02 11:35:15;;;;;;;4.22;2.40;;;6.30;99.90;;;;;;5014895;28;20222;-74
2023/02/02 11:38:00;;;;;;;3.90;2.10;;;6.30;99.90;;;;;;5008900;28;21072;-73
2023/02/02 11:40:34;;;;;;;2.97;2.20;;;6.30;99.90;;;;;;4989868;28;20235;-73
2023/02/02 11:43:05;;;;;;;2.53;2.30;;;6.30;99.90;;;;;;5020273;28;20613;-73
2023/02/02 11:45:37;;;;;;;2.42;1.90;;;6.30;99.90;;;;;;5008327;28;20214;-74
2023/02/02 11:48:14;;;;;;;3.22;2.30;;;6.30;99.90;;;;;;5001638;28;20223;-74
2023/02/02 11:50:47;;;;;;;5.60;2.55;;;6.30;99.90;;;;;;5003704;28;20228;-73
2023/02/02 11:53:23;;;;;;;6.43;3.53;;;6.30;99.90;;;;;;5003946;28;20191;-72
2023/02/02 11:55:54;;;;;;;4.15;2.55;;;6.30;99.90;;;;;;4996505;28;20275;-72
2023/02/02 11:58:27;;;;;;;3.95;2.53;;;6.30;99.90;;;;;;5026771;28;20251;-72
2023/02/02 12:00:58;;;;;;;4.10;2.55;;;6.30;99.90;;;;;;4998112;28;20221;-73
2023/02/02 12:03:33;;;;;;;4.25;2.65;;;6.30;99.90;;;;;;5013941;28;20288;-73
2023/02/02 12:06:19;;;;;;;3.97;2.40;;;6.30;99.90;;;;;;5024812;28;20290;-73
2023/02/02 12:08:50;;;;;;;2.50;2.08;;;6.30;99.90;;;;;;4992368;28;20687;-74
2023/02/02 12:11:34;;;;;;;2.90;2.50;;;6.30;99.90;;;;;;5003989;28;20682;-72
2023/02/02 12:14:17;;;;;;;2.40;2.22;;;6.30;99.90;;;;;;5008575;28;20661;-72
2023/02/02 12:16:59;;;;;;;4.25;2.35;;;6.30;99.90;;;;;;4997548;28;20300;-73
2023/02/02 12:19:52;;;;;;;4.90;2.40;;;6.30;99.90;;;;;;5011224;28;20294;-71
2023/02/02 12:22:37;;;;;;;2.67;2.15;;;6.30;99.90;;;;;;5014120;28;20222;-73
2023/02/02 12:25:29;;;;;;;3.40;2.63;;;6.30;99.90;;;;;;5006516;28;20295;-73
2023/02/02 12:28:07;;;;;;;3.13;2.20;;;6.30;99.90;;;;;;5003340;28;20202;-73
2023/02/02 12:30:43;;;;;;;3.85;2.72;;;6.30;99.90;;;;;;5000361;28;20797;-73
2023/02/02 12:33:29;;;;;;;5.82;2.67;;;6.30;99.90;;;;;;5006632;28;20662;-72
2023/02/02 12:36:20;;;;;;;3.95;2.63;;;6.30;99.90;;;;;;5014019;28;20231;-73
2023/02/02 12:39:10;;;;;;;3.92;2.72;;;6.30;99.90;;;;;;5007693;28;20215;-74
2023/02/02 12:42:00;;;;;;;3.97;2.67;;;6.30;99.90;;;;;;4998255;28;20556;-74
2023/02/02 12:44:39;;;;;;;5.25;2.35;;;6.30;99.90;;;;;;5004488;28;20229;-73
2023/02/02 12:47:17;;;;;;;2.95;2.63;;;6.30;99.90;;;;;;5001985;28;20607;-73
2023/02/02 12:50:09;;;;;;;4.35;2.53;;;6.40;99.90;;;;;;5002088;28;20449;-76
2023/02/02 12:52:54;;;;;;;3.78;2.45;;;6.40;99.90;;;;;;5004341;28;20969;-72
2023/02/02 12:55:29;;;;;;;3.20;2.42;;;6.40;99.90;;;;;;5001022;28;20251;-73
2023/02/02 12:58:08;;;;;;;4.15;2.25;;;6.40;99.90;;;;;;5002195;28;20551;-72
2023/02/02 13:01:33;;;;;;;3.97;2.35;;;6.40;99.90;;;;;;5001483;28;20234;-71
2023/02/02 13:04:20;;;;;;;2.67;2.42;;;6.40;99.90;;;;;;4921707;29;20778;-73
2023/02/02 13:07:18;;;;;;;3.63;2.30;;;6.40;99.90;;;;;;4926902;29;20311;-72
2023/02/02 13:09:52;;;;;;;3.15;2.10;;;6.40;99.90;;;;;;4995960;28;20192;-73
2023/02/02 13:12:23;;;;;;;4.30;2.30;;;6.40;99.90;;;;;;4987740;28;20218;-74
2023/02/02 13:14:57;;;;;;;3.35;2.25;;;6.40;99.90;;;;;;4999850;28;20213;-73
2023/02/02 13:17:30;;;;;;;5.97;2.60;;;6.40;99.90;;;;;;4997228;28;20256;-73
2023/02/02 13:20:03;;;;;;;2.10;1.80;;;6.40;99.90;;;;;;5016216;28;20218;-73
2023/02/02 13:22:36;;;;;;;5.72;2.30;;;6.40;99.90;;;;;;4999584;28;21022;-73
2023/02/02 13:25:09;;;;;;;8.23;2.40;;;6.40;99.90;;;;;;4997585;28;20242;-74
2023/02/02 13:27:40;;;;;;;3.70;2.58;;;6.40;99.90;;;;;;4994162;28;20290;-74
2023/02/02 13:30:16;;;;;;;2.38;2.17;;;6.40;99.90;;;;;;4995463;28;20224;-74
2023/02/02 13:32:47;;;;;;;3.70;2.13;;;6.40;99.90;;;;;;5002845;28;20197;-74
2023/02/02 13:35:20;;;;;;;4.43;2.47;;;6.40;99.90;;;;;;4999423;28;20306;-73
2023/02/02 13:37:54;;;;;;;2.38;2.17;;;6.40;99.90;;;;;;5002277;28;20232;-74
2023/02/02 13:40:27;;;;;;;3.95;2.20;;;6.40;99.90;;;;;;4992566;28;20214;-71
2023/02/02 13:43:04;;;;;;;5.43;2.30;;;6.40;99.90;;;;;;5000223;28;20211;-74